sensor_id;sensor_type;location;lat;lon;timestamp;P1;durP1;ratioP1;P2;durP2;ratioP2
10299;SDS011;5195;48.562;9.192;2023-06-19T00:02:23;7.23;;;6.80;;
10299;SDS011;5195;48.562;9.192;2023-06-19T00:04:48;6.83;;;6.30;;
10299;SDS011;5195;48.562;9.192;2023-06-19T00:07:14;7.72;;;7.20;;
10299;SDS011;5195;48.562;9.192;2023-06-19T00:09:40;7.50;;;7.00;;
10299;SDS011;5195;48.562;9.192;2023-06-19T00:12:06;7.47;;;6.83;;
10299;SDS011;5195;48.562;9.192;2023-06-19T00:14:31;6.67;;;6.27;;
10299;SDS011;5195;48.562;9.192;2023-06-19T00:16:57;6.57;;;6.17;;
10299;SDS011;5195;48.562;9.192;2023-06-19T00:19:23;6.43;;;6.13;;
10299;SDS011;5195;48.562;9.192;2023-06-19T00:21:48;6.37;;;5.97;;
10299;SDS011;5195;48.562;9.192;2023-06-19T00:24:14;7.20;;;6.60;;
10299;SDS011;5195;48.562;9.192;2023-06-19T00:26:39;6.85;;;6.30;;
10299;SDS011;5195;48.562;9.192;2023-06-19T00:29:06;6.93;;;6.40;;
10299;SDS011;5195;48.562;9.192;2023-06-19T00:31:31;7.50;;;7.10;;
10299;SDS011;5195;48.562;9.192;2023-06-19T00:33:57;7.62;;;7.05;;
10299;SDS011;5195;48.562;9.192;2023-06-19T00:36:22;6.73;;;6.17;;
10299;SDS011;5195;48.562;9.192;2023-06-19T00:38:49;7.23;;;6.70;;
10299;SDS011;5195;48.562;9.192;2023-06-19T00:41:14;7.03;;;6.57;;
10299;SDS011;5195;48.562;9.192;2023-06-19T00:43:42;7.12;;;6.60;;
10299;SDS011;5195;48.562;9.192;2023-06-19T00:46:09;6.80;;;6.40;;
10299;SDS011;5195;48.562;9.192;2023-06-19T00:48:35;6.97;;;6.47;;
10299;SDS011;5195;48.562;9.192;2023-06-19T00:51:02;7.33;;;6.93;;
10299;SDS011;5195;48.562;9.192;2023-06-19T00:53:28;8.07;;;7.47;;
10299;SDS011;5195;48.562;9.192;2023-06-19T00:55:55;7.60;;;7.00;;
10299;SDS011;5195;48.562;9.192;2023-06-19T00:58:20;7.62;;;6.72;;
10299;SDS011;5195;48.562;9.192;2023-06-19T01:00:45;6.87;;;6.40;;
10299;SDS011;5195;48.562;9.192;2023-06-19T01:03:11;6.83;;;6.33;;
10299;SDS011;5195;48.562;9.192;2023-06-19T01:05:37;7.18;;;6.57;;
10299;SDS011;5195;48.562;9.192;2023-06-19T01:08:10;7.10;;;6.70;;
10299;SDS011;5195;48.562;9.192;2023-06-19T01:10:42;7.50;;;6.80;;
10299;SDS011;5195;48.562;9.192;2023-06-19T01:13:19;7.47;;;6.97;;
10299;SDS011;5195;48.562;9.192;2023-06-19T01:15:42;7.27;;;6.77;;
10299;SDS011;5195;48.562;9.192;2023-06-19T01:18:08;8.33;;;7.50;;
10299;SDS011;5195;48.562;9.192;2023-06-19T01:20:33;7.60;;;7.20;;
10299;SDS011;5195;48.562;9.192;2023-06-19T01:23:08;8.27;;;7.67;;
10299;SDS011;5195;48.562;9.192;2023-06-19T01:25:35;7.78;;;7.07;;
10299;SDS011;5195;48.562;9.192;2023-06-19T01:28:00;7.70;;;7.00;;
10299;SDS011;5195;48.562;9.192;2023-06-19T01:30:26;7.03;;;6.63;;
10299;SDS011;5195;48.562;9.192;2023-06-19T01:32:56;7.93;;;7.43;;
10299;SDS011;5195;48.562;9.192;2023-06-19T01:35:25;8.32;;;7.37;;
10299;SDS011;5195;48.562;9.192;2023-06-19T01:37:45;7.23;;;6.60;;
10299;SDS011;5195;48.562;9.192;2023-06-19T01:40:11;8.30;;;7.70;;
10299;SDS011;5195;48.562;9.192;2023-06-19T01:42:37;7.67;;;7.27;;
10299;SDS011;5195;48.562;9.192;2023-06-19T01:45:02;8.05;;;7.55;;
10299;SDS011;5195;48.562;9.192;2023-06-19T01:47:28;6.87;;;6.47;;
10299;SDS011;5195;48.562;9.192;2023-06-19T01:49:53;7.43;;;6.93;;
10299;SDS011;5195;48.562;9.192;2023-06-19T01:52:19;7.93;;;6.97;;
10299;SDS011;5195;48.562;9.192;2023-06-19T01:54:44;8.00;;;7.30;;
10299;SDS011;5195;48.562;9.192;2023-06-19T01:57:11;7.43;;;6.97;;
10299;SDS011;5195;48.562;9.192;2023-06-19T01:59:36;7.40;;;6.80;;
10299;SDS011;5195;48.562;9.192;2023-06-19T02:02:02;7.80;;;7.22;;
10299;SDS011;5195;48.562;9.192;2023-06-19T02:04:27;7.13;;;6.43;;
10299;SDS011;5195;48.562;9.192;2023-06-19T02:06:53;6.80;;;6.40;;
10299;SDS011;5195;48.562;9.192;2023-06-19T02:09:19;7.87;;;7.35;;
10299;SDS011;5195;48.562;9.192;2023-06-19T02:11:45;7.40;;;6.90;;
10299;SDS011;5195;48.562;9.192;2023-06-19T02:14:10;7.20;;;6.70;;
10299;SDS011;5195;48.562;9.192;2023-06-19T02:16:38;7.10;;;6.60;;
10299;SDS011;5195;48.562;9.192;2023-06-19T02:19:03;6.67;;;6.27;;
10299;SDS011;5195;48.562;9.192;2023-06-19T02:21:30;6.40;;;6.00;;
10299;SDS011;5195;48.562;9.192;2023-06-19T02:23:55;6.85;;;6.25;;
10299;SDS011;5195;48.562;9.192;2023-06-19T02:26:21;7.00;;;6.50;;
10299;SDS011;5195;48.562;9.192;2023-06-19T02:28:46;7.23;;;6.63;;
10299;SDS011;5195;48.562;9.192;2023-06-19T02:31:12;7.10;;;6.60;;
10299;SDS011;5195;48.562;9.192;2023-06-19T02:33:38;7.00;;;6.50;;
10299;SDS011;5195;48.562;9.192;2023-06-19T02:36:03;7.13;;;6.53;;
10299;SDS011;5195;48.562;9.192;2023-06-19T02:38:29;7.93;;;7.33;;
10299;SDS011;5195;48.562;9.192;2023-06-19T02:40:55;6.80;;;6.40;;
10299;SDS011;5195;48.562;9.192;2023-06-19T02:43:20;7.47;;;7.07;;
10299;SDS011;5195;48.562;9.192;2023-06-19T02:45:45;6.73;;;6.33;;
10299;SDS011;5195;48.562;9.192;2023-06-19T02:48:12;7.07;;;6.23;;
10299;SDS011;5195;48.562;9.192;2023-06-19T02:50:37;6.47;;;5.97;;
10299;SDS011;5195;48.562;9.192;2023-06-19T02:53:03;6.30;;;6.00;;
10299;SDS011;5195;48.562;9.192;2023-06-19T02:55:30;6.65;;;6.10;;
10299;SDS011;5195;48.562;9.192;2023-06-19T02:57:55;6.72;;;6.22;;
10299;SDS011;5195;48.562;9.192;2023-06-19T03:00:21;6.67;;;6.17;;
10299;SDS011;5195;48.562;9.192;2023-06-19T03:02:47;6.40;;;6.00;;
10299;SDS011;5195;48.562;9.192;2023-06-19T03:05:12;6.95;;;6.45;;
10299;SDS011;5195;48.562;9.192;2023-06-19T03:07:38;6.40;;;5.97;;
10299;SDS011;5195;48.562;9.192;2023-06-19T03:10:04;5.63;;;5.33;;
10299;SDS011;5195;48.562;9.192;2023-06-19T03:12:30;6.53;;;6.13;;
10299;SDS011;5195;48.562;9.192;2023-06-19T03:14:56;6.40;;;6.00;;
10299;SDS011;5195;48.562;9.192;2023-06-19T03:17:24;6.07;;;5.70;;
10299;SDS011;5195;48.562;9.192;2023-06-19T03:19:50;6.57;;;6.07;;
10299;SDS011;5195;48.562;9.192;2023-06-19T03:22:15;6.60;;;6.10;;
10299;SDS011;5195;48.562;9.192;2023-06-19T03:24:41;8.03;;;5.93;;
10299;SDS011;5195;48.562;9.192;2023-06-19T03:27:08;6.87;;;6.47;;
10299;SDS011;5195;48.562;9.192;2023-06-19T03:29:35;6.40;;;6.10;;
10299;SDS011;5195;48.562;9.192;2023-06-19T03:32:00;6.70;;;6.23;;
10299;SDS011;5195;48.562;9.192;2023-06-19T03:34:27;5.93;;;5.43;;
10299;SDS011;5195;48.562;9.192;2023-06-19T03:36:53;7.00;;;6.50;;
10299;SDS011;5195;48.562;9.192;2023-06-19T03:39:19;7.00;;;6.53;;
10299;SDS011;5195;48.562;9.192;2023-06-19T03:41:44;6.63;;;6.23;;
10299;SDS011;5195;48.562;9.192;2023-06-19T03:44:10;6.65;;;6.25;;
10299;SDS011;5195;48.562;9.192;2023-06-19T03:46:38;6.00;;;5.60;;
10299;SDS011;5195;48.562;9.192;2023-06-19T03:49:04;5.90;;;5.60;;
10299;SDS011;5195;48.562;9.192;2023-06-19T03:51:30;6.70;;;6.27;;
10299;SDS011;5195;48.562;9.192;2023-06-19T03:53:55;6.40;;;6.00;;
10299;SDS011;5195;48.562;9.192;2023-06-19T03:56:21;5.67;;;5.37;;
10299;SDS011;5195;48.562;9.192;2023-06-19T03:58:47;5.70;;;5.27;;
10299;SDS011;5195;48.562;9.192;2023-06-19T04:01:14;5.90;;;5.47;;
10299;SDS011;5195;48.562;9.192;2023-06-19T04:03:41;6.57;;;5.72;;
10299;SDS011;5195;48.562;9.192;2023-06-19T04:06:07;5.97;;;5.67;;
10299;SDS011;5195;48.562;9.192;2023-06-19T04:08:33;5.57;;;5.18;;
10299;SDS011;5195;48.562;9.192;2023-06-19T04:10:59;5.30;;;5.00;;
10299;SDS011;5195;48.562;9.192;2023-06-19T04:13:24;4.67;;;4.47;;
10299;SDS011;5195;48.562;9.192;2023-06-19T04:15:50;5.12;;;4.82;;
10299;SDS011;5195;48.562;9.192;2023-06-19T04:18:15;4.80;;;4.50;;
10299;SDS011;5195;48.562;9.192;2023-06-19T04:20:41;5.03;;;4.60;;
10299;SDS011;5195;48.562;9.192;2023-06-19T04:23:07;5.50;;;5.00;;
10299;SDS011;5195;48.562;9.192;2023-06-19T04:25:34;4.90;;;4.60;;
10299;SDS011;5195;48.562;9.192;2023-06-19T04:27:58;5.17;;;4.80;;
10299;SDS011;5195;48.562;9.192;2023-06-19T04:30:24;4.50;;;4.30;;
10299;SDS011;5195;48.562;9.192;2023-06-19T04:32:49;4.87;;;4.27;;
10299;SDS011;5195;48.562;9.192;2023-06-19T04:35:16;5.03;;;4.47;;
10299;SDS011;5195;48.562;9.192;2023-06-19T04:37:42;4.90;;;4.60;;
10299;SDS011;5195;48.562;9.192;2023-06-19T04:40:08;4.90;;;4.70;;
10299;SDS011;5195;48.562;9.192;2023-06-19T04:42:34;4.60;;;4.30;;
10299;SDS011;5195;48.562;9.192;2023-06-19T04:45:00;4.70;;;4.33;;
10299;SDS011;5195;48.562;9.192;2023-06-19T04:47:25;4.43;;;4.13;;
10299;SDS011;5195;48.562;9.192;2023-06-19T04:49:51;5.10;;;4.70;;
10299;SDS011;5195;48.562;9.192;2023-06-19T04:52:17;5.10;;;4.80;;
10299;SDS011;5195;48.562;9.192;2023-06-19T04:54:43;5.00;;;4.70;;
10299;SDS011;5195;48.562;9.192;2023-06-19T04:57:09;4.83;;;4.60;;
10299;SDS011;5195;48.562;9.192;2023-06-19T04:59:34;5.40;;;4.90;;
10299;SDS011;5195;48.562;9.192;2023-06-19T05:02:00;4.37;;;4.17;;
10299;SDS011;5195;48.562;9.192;2023-06-19T05:04:25;4.23;;;3.93;;
10299;SDS011;5195;48.562;9.192;2023-06-19T05:06:51;4.90;;;4.60;;
10299;SDS011;5195;48.562;9.192;2023-06-19T05:09:16;4.60;;;4.30;;
10299;SDS011;5195;48.562;9.192;2023-06-19T05:11:43;4.63;;;4.43;;
10299;SDS011;5195;48.562;9.192;2023-06-19T05:14:08;4.30;;;4.10;;
10299;SDS011;5195;48.562;9.192;2023-06-19T05:16:34;4.70;;;4.40;;
10299;SDS011;5195;48.562;9.192;2023-06-19T05:19:00;4.62;;;4.32;;
10299;SDS011;5195;48.562;9.192;2023-06-19T05:21:25;4.50;;;4.20;;
10299;SDS011;5195;48.562;9.192;2023-06-19T05:23:51;3.80;;;3.60;;
10299;SDS011;5195;48.562;9.192;2023-06-19T05:26:16;4.45;;;4.15;;
10299;SDS011;5195;48.562;9.192;2023-06-19T05:28:42;4.55;;;4.30;;
10299;SDS011;5195;48.562;9.192;2023-06-19T05:31:07;4.70;;;4.43;;
10299;SDS011;5195;48.562;9.192;2023-06-19T05:33:33;4.25;;;4.05;;
10299;SDS011;5195;48.562;9.192;2023-06-19T05:35:59;4.20;;;3.90;;
10299;SDS011;5195;48.562;9.192;2023-06-19T05:38:25;3.83;;;3.60;;
10299;SDS011;5195;48.562;9.192;2023-06-19T05:40:50;4.68;;;4.30;;
10299;SDS011;5195;48.562;9.192;2023-06-19T05:43:16;4.33;;;3.93;;
10299;SDS011;5195;48.562;9.192;2023-06-19T05:45:41;4.40;;;4.10;;
10299;SDS011;5195;48.562;9.192;2023-06-19T05:48:07;4.13;;;3.90;;
10299;SDS011;5195;48.562;9.192;2023-06-19T05:50:33;4.10;;;3.90;;
10299;SDS011;5195;48.562;9.192;2023-06-19T05:52:59;4.62;;;4.10;;
10299;SDS011;5195;48.562;9.192;2023-06-19T05:55:25;4.87;;;3.87;;
10299;SDS011;5195;48.562;9.192;2023-06-19T05:57:50;4.20;;;4.00;;
10299;SDS011;5195;48.562;9.192;2023-06-19T06:00:16;4.15;;;3.85;;
10299;SDS011;5195;48.562;9.192;2023-06-19T06:02:41;3.60;;;3.40;;
10299;SDS011;5195;48.562;9.192;2023-06-19T06:05:07;3.73;;;3.53;;
10299;SDS011;5195;48.562;9.192;2023-06-19T06:07:33;3.60;;;3.30;;
10299;SDS011;5195;48.562;9.192;2023-06-19T06:09:59;3.83;;;3.53;;
10299;SDS011;5195;48.562;9.192;2023-06-19T06:12:24;4.10;;;3.80;;
10299;SDS011;5195;48.562;9.192;2023-06-19T06:14:50;3.97;;;3.50;;
10299;SDS011;5195;48.562;9.192;2023-06-19T06:17:15;3.77;;;3.57;;
10299;SDS011;5195;48.562;9.192;2023-06-19T06:19:41;4.23;;;4.00;;
10299;SDS011;5195;48.562;9.192;2023-06-19T06:22:08;3.67;;;3.47;;
10299;SDS011;5195;48.562;9.192;2023-06-19T06:24:33;5.93;;;4.00;;
10299;SDS011;5195;48.562;9.192;2023-06-19T06:26:59;3.73;;;3.43;;
10299;SDS011;5195;48.562;9.192;2023-06-19T06:29:24;3.50;;;3.20;;
10299;SDS011;5195;48.562;9.192;2023-06-19T06:31:50;3.97;;;3.67;;
10299;SDS011;5195;48.562;9.192;2023-06-19T06:34:19;3.90;;;3.60;;
10299;SDS011;5195;48.562;9.192;2023-06-19T06:36:45;4.97;;;3.40;;
10299;SDS011;5195;48.562;9.192;2023-06-19T06:39:10;5.82;;;3.58;;
10299;SDS011;5195;48.562;9.192;2023-06-19T06:41:36;6.53;;;3.50;;
10299;SDS011;5195;48.562;9.192;2023-06-19T06:44:02;3.45;;;3.25;;
10299;SDS011;5195;48.562;9.192;2023-06-19T06:46:27;3.85;;;3.30;;
10299;SDS011;5195;48.562;9.192;2023-06-19T06:48:53;3.47;;;3.17;;
10299;SDS011;5195;48.562;9.192;2023-06-19T06:51:19;3.60;;;3.30;;
10299;SDS011;5195;48.562;9.192;2023-06-19T06:53:45;3.50;;;3.30;;
10299;SDS011;5195;48.562;9.192;2023-06-19T06:56:12;3.57;;;3.27;;
10299;SDS011;5195;48.562;9.192;2023-06-19T06:58:39;3.43;;;3.23;;
10299;SDS011;5195;48.562;9.192;2023-06-19T07:01:04;3.53;;;3.33;;
10299;SDS011;5195;48.562;9.192;2023-06-19T07:03:30;3.58;;;3.37;;
10299;SDS011;5195;48.562;9.192;2023-06-19T07:05:56;3.77;;;3.47;;
10299;SDS011;5195;48.562;9.192;2023-06-19T07:08:21;3.58;;;3.28;;
10299;SDS011;5195;48.562;9.192;2023-06-19T07:10:47;3.30;;;3.20;;
10299;SDS011;5195;48.562;9.192;2023-06-19T07:13:12;3.70;;;3.33;;
10299;SDS011;5195;48.562;9.192;2023-06-19T07:15:39;3.75;;;3.37;;
10299;SDS011;5195;48.562;9.192;2023-06-19T07:18:04;4.03;;;3.63;;
10299;SDS011;5195;48.562;9.192;2023-06-19T07:20:30;4.20;;;3.60;;
10299;SDS011;5195;48.562;9.192;2023-06-19T07:22:55;3.80;;;3.50;;
10299;SDS011;5195;48.562;9.192;2023-06-19T07:25:22;3.40;;;3.20;;
10299;SDS011;5195;48.562;9.192;2023-06-19T07:27:47;3.50;;;3.23;;
10299;SDS011;5195;48.562;9.192;2023-06-19T07:30:13;3.47;;;3.33;;
10299;SDS011;5195;48.562;9.192;2023-06-19T07:32:38;3.50;;;3.30;;
10299;SDS011;5195;48.562;9.192;2023-06-19T07:35:04;3.50;;;3.30;;
10299;SDS011;5195;48.562;9.192;2023-06-19T07:37:31;3.90;;;3.50;;
10299;SDS011;5195;48.562;9.192;2023-06-19T07:39:56;3.73;;;3.53;;
10299;SDS011;5195;48.562;9.192;2023-06-19T07:42:22;3.77;;;3.57;;
10299;SDS011;5195;48.562;9.192;2023-06-19T07:44:47;3.17;;;3.03;;
10299;SDS011;5195;48.562;9.192;2023-06-19T07:47:15;3.92;;;3.47;;
10299;SDS011;5195;48.562;9.192;2023-06-19T07:49:38;3.57;;;3.27;;
10299;SDS011;5195;48.562;9.192;2023-06-19T07:52:04;3.60;;;3.50;;
10299;SDS011;5195;48.562;9.192;2023-06-19T07:54:30;3.53;;;3.43;;
10299;SDS011;5195;48.562;9.192;2023-06-19T07:56:55;3.20;;;3.10;;
10299;SDS011;5195;48.562;9.192;2023-06-19T07:59:21;3.83;;;3.60;;
10299;SDS011;5195;48.562;9.192;2023-06-19T08:01:46;3.57;;;3.37;;
10299;SDS011;5195;48.562;9.192;2023-06-19T08:04:12;3.33;;;3.12;;
10299;SDS011;5195;48.562;9.192;2023-06-19T08:06:38;3.20;;;3.10;;
10299;SDS011;5195;48.562;9.192;2023-06-19T08:09:03;3.27;;;3.17;;
10299;SDS011;5195;48.562;9.192;2023-06-19T08:11:29;3.83;;;3.53;;
10299;SDS011;5195;48.562;9.192;2023-06-19T08:13:54;3.93;;;3.73;;
10299;SDS011;5195;48.562;9.192;2023-06-19T08:16:20;4.10;;;3.70;;
10299;SDS011;5195;48.562;9.192;2023-06-19T08:18:45;3.90;;;3.60;;
10299;SDS011;5195;48.562;9.192;2023-06-19T08:21:13;4.10;;;3.70;;
10299;SDS011;5195;48.562;9.192;2023-06-19T08:23:38;3.43;;;3.30;;
10299;SDS011;5195;48.562;9.192;2023-06-19T08:26:03;3.62;;;3.50;;
10299;SDS011;5195;48.562;9.192;2023-06-19T08:28:31;3.30;;;3.20;;
10299;SDS011;5195;48.562;9.192;2023-06-19T08:30:56;4.10;;;3.80;;
10299;SDS011;5195;48.562;9.192;2023-06-19T08:33:22;3.60;;;3.40;;
10299;SDS011;5195;48.562;9.192;2023-06-19T08:35:47;3.95;;;3.75;;
10299;SDS011;5195;48.562;9.192;2023-06-19T08:38:14;4.05;;;3.85;;
10299;SDS011;5195;48.562;9.192;2023-06-19T08:40:44;3.90;;;3.70;;
10299;SDS011;5195;48.562;9.192;2023-06-19T08:43:09;3.80;;;3.60;;
10299;SDS011;5195;48.562;9.192;2023-06-19T08:45:35;4.40;;;3.90;;
10299;SDS011;5195;48.562;9.192;2023-06-19T08:48:01;4.00;;;3.80;;
10299;SDS011;5195;48.562;9.192;2023-06-19T08:50:26;3.90;;;3.60;;
10299;SDS011;5195;48.562;9.192;2023-06-19T08:52:51;3.53;;;3.33;;
10299;SDS011;5195;48.562;9.192;2023-06-19T08:55:18;3.57;;;3.40;;
10299;SDS011;5195;48.562;9.192;2023-06-19T08:57:43;3.47;;;3.27;;
10299;SDS011;5195;48.562;9.192;2023-06-19T09:00:09;3.50;;;3.30;;
10299;SDS011;5195;48.562;9.192;2023-06-19T09:02:47;3.70;;;3.50;;
10299;SDS011;5195;48.562;9.192;2023-06-19T09:05:12;3.60;;;3.42;;
10299;SDS011;5195;48.562;9.192;2023-06-19T09:07:37;3.00;;;2.90;;
10299;SDS011;5195;48.562;9.192;2023-06-19T09:10:17;3.70;;;3.50;;
10299;SDS011;5195;48.562;9.192;2023-06-19T09:12:56;3.50;;;3.30;;
10299;SDS011;5195;48.562;9.192;2023-06-19T09:15:26;4.03;;;3.30;;
10299;SDS011;5195;48.562;9.192;2023-06-19T09:18:10;3.80;;;3.40;;
10299;SDS011;5195;48.562;9.192;2023-06-19T09:20:42;4.50;;;3.50;;
10299;SDS011;5195;48.562;9.192;2023-06-19T09:23:11;3.27;;;3.17;;
10299;SDS011;5195;48.562;9.192;2023-06-19T09:25:48;3.30;;;3.20;;
10299;SDS011;5195;48.562;9.192;2023-06-19T09:28:17;2.17;;;2.13;;
10299;SDS011;5195;48.562;9.192;2023-06-19T09:31:00;2.20;;;2.10;;
10299;SDS011;5195;48.562;9.192;2023-06-19T09:33:26;1.90;;;1.80;;
10299;SDS011;5195;48.562;9.192;2023-06-19T09:35:51;2.23;;;1.83;;
10299;SDS011;5195;48.562;9.192;2023-06-19T09:38:17;1.73;;;1.62;;
10299;SDS011;5195;48.562;9.192;2023-06-19T09:40:46;1.70;;;1.60;;
10299;SDS011;5195;48.562;9.192;2023-06-19T09:43:11;1.37;;;1.37;;
10299;SDS011;5195;48.562;9.192;2023-06-19T09:45:37;1.90;;;1.80;;
10299;SDS011;5195;48.562;9.192;2023-06-19T09:48:03;1.80;;;1.70;;
10299;SDS011;5195;48.562;9.192;2023-06-19T09:50:29;1.53;;;1.53;;
10299;SDS011;5195;48.562;9.192;2023-06-19T09:52:55;1.87;;;1.87;;
10299;SDS011;5195;48.562;9.192;2023-06-19T09:55:22;1.93;;;1.53;;
10299;SDS011;5195;48.562;9.192;2023-06-19T09:57:48;1.90;;;1.90;;
10299;SDS011;5195;48.562;9.192;2023-06-19T10:00:15;1.75;;;1.65;;
10299;SDS011;5195;48.562;9.192;2023-06-19T10:02:41;1.80;;;1.80;;
10299;SDS011;5195;48.562;9.192;2023-06-19T10:05:07;1.80;;;1.70;;
10299;SDS011;5195;48.562;9.192;2023-06-19T10:07:36;1.97;;;1.87;;
10299;SDS011;5195;48.562;9.192;2023-06-19T10:10:06;1.80;;;1.80;;
10299;SDS011;5195;48.562;9.192;2023-06-19T10:12:39;2.00;;;2.00;;
10299;SDS011;5195;48.562;9.192;2023-06-19T10:17:46;2.40;;;2.20;;
10299;SDS011;5195;48.562;9.192;2023-06-19T10:20:17;2.43;;;2.33;;
10299;SDS011;5195;48.562;9.192;2023-06-19T10:22:34;2.30;;;2.20;;
10299;SDS011;5195;48.562;9.192;2023-06-19T10:24:59;1.93;;;1.93;;
10299;SDS011;5195;48.562;9.192;2023-06-19T10:27:25;2.47;;;2.37;;
10299;SDS011;5195;48.562;9.192;2023-06-19T10:29:54;2.45;;;2.30;;
10299;SDS011;5195;48.562;9.192;2023-06-19T10:32:20;2.67;;;2.57;;
10299;SDS011;5195;48.562;9.192;2023-06-19T10:34:46;2.50;;;2.40;;
10299;SDS011;5195;48.562;9.192;2023-06-19T10:37:10;2.27;;;2.17;;
10299;SDS011;5195;48.562;9.192;2023-06-19T10:39:36;2.65;;;2.55;;
10299;SDS011;5195;48.562;9.192;2023-06-19T10:42:04;2.70;;;2.60;;
10299;SDS011;5195;48.562;9.192;2023-06-19T10:44:27;2.70;;;2.50;;
10299;SDS011;5195;48.562;9.192;2023-06-19T10:46:53;2.60;;;2.50;;
10299;SDS011;5195;48.562;9.192;2023-06-19T10:49:18;2.53;;;2.43;;
10299;SDS011;5195;48.562;9.192;2023-06-19T10:51:44;3.53;;;2.50;;
10299;SDS011;5195;48.562;9.192;2023-06-19T10:54:10;2.93;;;2.73;;
10299;SDS011;5195;48.562;9.192;2023-06-19T10:56:35;2.40;;;2.30;;
10299;SDS011;5195;48.562;9.192;2023-06-19T10:59:02;2.70;;;2.50;;
10299;SDS011;5195;48.562;9.192;2023-06-19T11:01:34;3.00;;;2.70;;
10299;SDS011;5195;48.562;9.192;2023-06-19T11:03:58;2.63;;;2.53;;
10299;SDS011;5195;48.562;9.192;2023-06-19T11:06:24;2.80;;;2.60;;
10299;SDS011;5195;48.562;9.192;2023-06-19T11:08:50;3.40;;;2.65;;
10299;SDS011;5195;48.562;9.192;2023-06-19T11:11:15;2.53;;;2.33;;
10299;SDS011;5195;48.562;9.192;2023-06-19T11:13:42;3.10;;;2.80;;
10299;SDS011;5195;48.562;9.192;2023-06-19T11:16:06;3.40;;;2.90;;
10299;SDS011;5195;48.562;9.192;2023-06-19T11:18:33;2.72;;;2.62;;
10299;SDS011;5195;48.562;9.192;2023-06-19T11:20:59;4.13;;;2.53;;
10299;SDS011;5195;48.562;9.192;2023-06-19T11:23:28;3.05;;;2.85;;
10299;SDS011;5195;48.562;9.192;2023-06-19T11:25:53;3.10;;;2.90;;
10299;SDS011;5195;48.562;9.192;2023-06-19T11:28:19;2.97;;;2.80;;
10299;SDS011;5195;48.562;9.192;2023-06-19T11:30:44;3.20;;;3.00;;
10299;SDS011;5195;48.562;9.192;2023-06-19T11:35:46;3.20;;;3.10;;
10299;SDS011;5195;48.562;9.192;2023-06-19T11:38:08;2.80;;;2.70;;
10299;SDS011;5195;48.562;9.192;2023-06-19T11:40:41;2.67;;;2.57;;
10299;SDS011;5195;48.562;9.192;2023-06-19T11:43:06;4.43;;;3.07;;
10299;SDS011;5195;48.562;9.192;2023-06-19T11:45:32;3.17;;;2.97;;
10299;SDS011;5195;48.562;9.192;2023-06-19T11:47:58;2.90;;;2.80;;
10299;SDS011;5195;48.562;9.192;2023-06-19T11:50:27;2.60;;;2.50;;
10299;SDS011;5195;48.562;9.192;2023-06-19T11:52:53;3.27;;;2.90;;
10299;SDS011;5195;48.562;9.192;2023-06-19T11:55:18;3.00;;;2.90;;
10299;SDS011;5195;48.562;9.192;2023-06-19T11:57:45;2.63;;;2.53;;
10299;SDS011;5195;48.562;9.192;2023-06-19T12:00:16;3.37;;;3.07;;
10299;SDS011;5195;48.562;9.192;2023-06-19T12:02:43;2.70;;;2.50;;
10299;SDS011;5195;48.562;9.192;2023-06-19T12:05:08;3.03;;;2.83;;
10299;SDS011;5195;48.562;9.192;2023-06-19T12:07:33;3.13;;;2.83;;
10299;SDS011;5195;48.562;9.192;2023-06-19T12:09:59;2.80;;;2.70;;
10299;SDS011;5195;48.562;9.192;2023-06-19T12:12:24;3.17;;;2.97;;
10299;SDS011;5195;48.562;9.192;2023-06-19T12:14:50;2.83;;;2.63;;
10299;SDS011;5195;48.562;9.192;2023-06-19T12:17:16;2.73;;;2.57;;
10299;SDS011;5195;48.562;9.192;2023-06-19T12:19:42;2.80;;;2.70;;
10299;SDS011;5195;48.562;9.192;2023-06-19T12:22:07;4.33;;;2.90;;
10299;SDS011;5195;48.562;9.192;2023-06-19T12:24:33;2.97;;;2.87;;
10299;SDS011;5195;48.562;9.192;2023-06-19T12:26:58;2.93;;;2.83;;
10299;SDS011;5195;48.562;9.192;2023-06-19T12:29:24;2.90;;;2.80;;
10299;SDS011;5195;48.562;9.192;2023-06-19T12:31:50;2.83;;;2.70;;
10299;SDS011;5195;48.562;9.192;2023-06-19T12:34:15;2.67;;;2.57;;
10299;SDS011;5195;48.562;9.192;2023-06-19T12:36:41;2.87;;;2.67;;
10299;SDS011;5195;48.562;9.192;2023-06-19T12:39:06;2.90;;;2.70;;
10299;SDS011;5195;48.562;9.192;2023-06-19T12:41:33;2.90;;;2.80;;
10299;SDS011;5195;48.562;9.192;2023-06-19T12:43:58;3.10;;;2.97;;
10299;SDS011;5195;48.562;9.192;2023-06-19T12:46:24;2.92;;;2.72;;
10299;SDS011;5195;48.562;9.192;2023-06-19T12:48:50;2.90;;;2.80;;
10299;SDS011;5195;48.562;9.192;2023-06-19T12:51:16;2.97;;;2.87;;
10299;SDS011;5195;48.562;9.192;2023-06-19T12:53:41;3.00;;;2.80;;
10299;SDS011;5195;48.562;9.192;2023-06-19T12:56:06;3.10;;;2.90;;
10299;SDS011;5195;48.562;9.192;2023-06-19T12:58:34;3.40;;;3.10;;
10299;SDS011;5195;48.562;9.192;2023-06-19T13:00:59;3.67;;;2.97;;
10299;SDS011;5195;48.562;9.192;2023-06-19T13:03:25;3.27;;;3.00;;
10299;SDS011;5195;48.562;9.192;2023-06-19T13:05:50;2.80;;;2.70;;
10299;SDS011;5195;48.562;9.192;2023-06-19T13:08:17;3.03;;;2.93;;
10299;SDS011;5195;48.562;9.192;2023-06-19T13:10:42;2.73;;;2.53;;
10299;SDS011;5195;48.562;9.192;2023-06-19T13:13:08;2.70;;;2.60;;
10299;SDS011;5195;48.562;9.192;2023-06-19T13:15:33;3.00;;;2.90;;
10299;SDS011;5195;48.562;9.192;2023-06-19T13:17:59;2.87;;;2.77;;
10299;SDS011;5195;48.562;9.192;2023-06-19T13:20:25;3.05;;;2.85;;
10299;SDS011;5195;48.562;9.192;2023-06-19T13:22:51;3.07;;;2.87;;
10299;SDS011;5195;48.562;9.192;2023-06-19T13:25:16;2.97;;;2.87;;
10299;SDS011;5195;48.562;9.192;2023-06-19T13:27:43;3.50;;;3.20;;
10299;SDS011;5195;48.562;9.192;2023-06-19T13:30:08;2.97;;;2.67;;
10299;SDS011;5195;48.562;9.192;2023-06-19T13:32:34;3.53;;;3.23;;
10299;SDS011;5195;48.562;9.192;2023-06-19T13:35:00;3.00;;;2.90;;
10299;SDS011;5195;48.562;9.192;2023-06-19T13:37:26;3.50;;;3.20;;
10299;SDS011;5195;48.562;9.192;2023-06-19T13:39:51;3.17;;;2.97;;
10299;SDS011;5195;48.562;9.192;2023-06-19T13:42:17;3.30;;;3.00;;
10299;SDS011;5195;48.562;9.192;2023-06-19T13:44:43;3.20;;;3.10;;
10299;SDS011;5195;48.562;9.192;2023-06-19T13:47:09;3.28;;;3.08;;
10299;SDS011;5195;48.562;9.192;2023-06-19T13:49:35;3.10;;;3.00;;
10299;SDS011;5195;48.562;9.192;2023-06-19T13:52:00;3.23;;;3.00;;
10299;SDS011;5195;48.562;9.192;2023-06-19T13:54:26;3.30;;;3.10;;
10299;SDS011;5195;48.562;9.192;2023-06-19T13:56:52;3.10;;;3.00;;
10299;SDS011;5195;48.562;9.192;2023-06-19T13:59:18;3.10;;;3.00;;
10299;SDS011;5195;48.562;9.192;2023-06-19T14:01:43;3.70;;;3.50;;
10299;SDS011;5195;48.562;9.192;2023-06-19T14:04:09;3.45;;;3.15;;
10299;SDS011;5195;48.562;9.192;2023-06-19T14:06:35;3.27;;;3.07;;
10299;SDS011;5195;48.562;9.192;2023-06-19T14:09:01;3.50;;;3.40;;
10299;SDS011;5195;48.562;9.192;2023-06-19T14:11:26;3.63;;;3.33;;
10299;SDS011;5195;48.562;9.192;2023-06-19T14:13:52;3.40;;;3.30;;
10299;SDS011;5195;48.562;9.192;2023-06-19T14:16:18;3.13;;;3.03;;
10299;SDS011;5195;48.562;9.192;2023-06-19T14:18:44;3.53;;;3.22;;
10299;SDS011;5195;48.562;9.192;2023-06-19T14:21:09;3.37;;;3.17;;
10299;SDS011;5195;48.562;9.192;2023-06-19T14:23:35;4.60;;;3.37;;
10299;SDS011;5195;48.562;9.192;2023-06-19T14:26:01;3.70;;;3.60;;
10299;SDS011;5195;48.562;9.192;2023-06-19T14:28:27;3.90;;;3.70;;
10299;SDS011;5195;48.562;9.192;2023-06-19T14:30:52;4.03;;;3.63;;
10299;SDS011;5195;48.562;9.192;2023-06-19T14:33:18;3.53;;;3.43;;
10299;SDS011;5195;48.562;9.192;2023-06-19T14:35:44;3.67;;;3.53;;
10299;SDS011;5195;48.562;9.192;2023-06-19T14:38:09;4.45;;;4.12;;
10299;SDS011;5195;48.562;9.192;2023-06-19T14:40:35;3.60;;;3.40;;
10299;SDS011;5195;48.562;9.192;2023-06-19T14:43:01;4.27;;;3.97;;
10299;SDS011;5195;48.562;9.192;2023-06-19T14:45:26;3.72;;;3.53;;
10299;SDS011;5195;48.562;9.192;2023-06-19T14:47:53;3.70;;;3.50;;
10299;SDS011;5195;48.562;9.192;2023-06-19T14:50:20;3.90;;;3.70;;
10299;SDS011;5195;48.562;9.192;2023-06-19T14:52:45;3.53;;;3.33;;
10299;SDS011;5195;48.562;9.192;2023-06-19T14:55:11;3.80;;;3.50;;
10299;SDS011;5195;48.562;9.192;2023-06-19T14:57:36;4.83;;;3.43;;
10299;SDS011;5195;48.562;9.192;2023-06-19T15:00:02;4.03;;;3.80;;